EKCHEGKK

Guest
Details From EKCH - Kastrup
To EGKK - London Gatwick
Flight Number -
Tags Routegen
Created
Modified
Stats Distance 536 nm / 993 km
Max Altitude 0 ft / 0 m
Waypoints 6
Social Downloads 2
Likes 0
Share VATSIM

Download

Looking for another format? Having issues loading an existing format? Contact us
Advertisement - Login to hide

Notes

None

Route

EKCH +55.49_+012.46 GOLEN BARMI +51.24_+000.51 EGKK

ID Type Via Altitude (ft/m) Position (lat/lon) Dist (leg/tot) Name
O EKCH APT - 0 / 0 55.60310 / 12.63304 - / 0 nm
+55.49_+012.46 DME - 0 / 0 55.49399 / 12.46494 8 / 8 nm
GOLEN FIX - 0 / 0 54.05972 / 8.32083 167 / 176 nm
BARMI FIX - 0 / 0 52.47833 / 2.57056 227 / 403 nm
+51.24_+000.51 DME - 0 / 0 51.24253 / 0.50919 106 / 509 nm
O EGKK APT - 0 / 0 51.15119 / -0.16819 26 / 535 nm

Altitude Profile

Advertisement - Login to hide

Weather


0- 5 10 15 20 25 30 35+ Temperature / °C

Clouds and Precipitation
Forecast for 2018-10-19 00:00 UTC. Updated 4 hours ago

Ground ~20,000 ft ~40,000 ft Winds

EKCH

Details ICAO EKCH (CPH)
Name Kastrup
Region Denmark / Faroe Islands
Timezone Europe/Copenhagen (UTC+2.0)
Stats Elevation 17 ft / 5 m (AMSL)
Location 55.617900° 12.656000°
Runways 3
Magnetic Variation 3.854° E

METAR

EKCH 190120Z 28004KT 9999 FEW024 04/04 Q1025 NOSIG

Decode

TAF

TAF EKCH 182303Z 1900/1924 29006KT CAVOK= TAF EKBI 182303Z 1900/1924 31005KT 9999 SCT025 PROB40 1900/1906 2000 MIFG

Decode

Departure Runways

ID Width Length Bearing (true/mag) Surface Threshold Overrun Markings Lighting
04L 148 ft / 45 m 11,848 ft / 3,611 m 41.15° / 37.29° ASPHALT 0 ft / 0 m 0 ft / 0 m PREC-APP CENTERLINE EDGE THRESHOLD ALSF-II TDZ REIL-UNI
04R 148 ft / 45 m 10,814 ft / 3,296 m 41.15° / 37.29° ASPHALT 0 ft / 0 m 0 ft / 0 m PREC-APP CENTERLINE EDGE THRESHOLD SSALF REIL-UNI
12 148 ft / 45 m 10,047 ft / 3,063 m 123.21° / 119.36° ASPHALT 2,313 ft / 705 m 0 ft / 0 m PREC-APP CENTERLINE EDGE THRESHOLD REIL-UNI
22L 148 ft / 45 m 10,814 ft / 3,296 m 221.17° / 217.32° ASPHALT 0 ft / 0 m 0 ft / 0 m PREC-APP CENTERLINE EDGE THRESHOLD ALSF-II TDZ REIL-UNI
22R 148 ft / 45 m 11,848 ft / 3,611 m 221.18° / 217.32° ASPHALT 2,018 ft / 615 m 0 ft / 0 m PREC-APP CENTERLINE EDGE THRESHOLD SALS REIL-UNI
30 148 ft / 45 m 10,047 ft / 3,063 m 303.25° / 299.39° ASPHALT 886 ft / 270 m 0 ft / 0 m PREC-APP CENTERLINE EDGE THRESHOLD REIL-UNI

EGKK

Details ICAO EGKK (LGW)
Name London Gatwick
Region United Kingdom
Timezone Europe/London (UTC+1.0)
Stats Elevation 188 ft / 57 m (AMSL)
Location 51.148800° -0.191847°
Runways 2
Magnetic Variation 0.309° W

METAR

EGKK 190120Z VRB02KT CAVOK 06/05 Q1026

Decode

TAF

TAF EGKK 182252Z 1900/2006 03005KT 9999 FEW035 TEMPO 1900/1909 7000 PROB30 1902/1908 3000 BR MIFG BECMG 1922/2001 7000 PROB30 2002/2006 0500 FG VV///

Decode

Destination Runways

ID Width Length Bearing (true/mag) Surface Threshold Overrun Markings Lighting
08L 148 ft / 45 m 8,326 ft / 2,538 m 77.61° / 77.92° ASPHALT 984 ft / 300 m 0 ft / 0 m UK-APP CENTERLINE EDGE THRESHOLD SALS REIL-OMNI
08R 148 ft / 45 m 10,859 ft / 3,310 m 77.58° / 77.89° ASPHALT 1,289 ft / 393 m 0 ft / 0 m UK-PREC-APP CENTERLINE EDGE THRESHOLD CALVERT-ILS TDZ REIL-OMNI
26L 148 ft / 45 m 10,859 ft / 3,310 m 257.62° / 257.93° ASPHALT 1,378 ft / 420 m 105 ft / 32 m UK-PREC-APP CENTERLINE EDGE THRESHOLD CALVERT-ILS TDZ REIL-OMNI
26R 148 ft / 45 m 8,326 ft / 2,538 m 257.64° / 257.95° ASPHALT 1,348 ft / 411 m 0 ft / 0 m UK-APP CENTERLINE EDGE THRESHOLD SALS REIL-OMNI

Approach Navaids

Runway Type Ident Frequency Range Bearing (true/mag) Slope Elevation
08R GS IGG 110.90 MHz 10 nm / 19 km 78.22° / 78.53 ° 3.00° 196 ft / 60 m (AMSL)
08R LOC-ILS IGG 110.90 MHz 18 nm / 33 km 77.66° / 77.97 ° - 196 ft / 60 m (AMSL)
08R DME IGG 110.90 MHz 18 nm / 33 km - - 274 ft / 84 m (AMSL)
26L DME IWW 110.90 MHz 18 nm / 33 km - - 274 ft / 84 m (AMSL)
26L LOC-ILS IWW 110.90 MHz 18 nm / 33 km 257.42° / 257.72 ° - 196 ft / 60 m (AMSL)
26L GS IWW 110.90 MHz 10 nm / 19 km 258.22° / 258.53 ° 3.00° 196 ft / 60 m (AMSL)

Popular Alternatives